x

La Perouse Bank (46206) Wave Buoy

9:00pm - Thu 23rd Nov 2017 All times are PST. -8 hours from GMT.

  • Sig Wave height 9.2ft
  • Peak Period 11s
  • Wind
    16mph, 18mph gusts
  • Sea Temp 52°f
  • Air Temp 50°f
  • Sea Pressure 1011.8mb
  • La Perouse Bank
  • La Perouse Bank

More Historic Weather Station data

Upgrade to MSW Pro to gain access to the past 30 days of data for over 8000 Wavebouys and Weather Stations around the globe.

Join

Comparision Forecast

View Surf forecast
   
Thu 11/23 9:00pm 9ft 11s 16 18 mph 1011.8mb 52f 50f
8:00pm 10ft 10s 16 20 mph 1011.1mb 52f 50f
7:00pm 10.5ft 11s 20 22 mph 1010.5mb 52f 51f
6:00pm 10.5ft 9s 22 29 mph 1009.5mb 52f 50f
5:00pm 10.5ft 10s 22 27 mph 1008.5mb 52f 51f
4:00pm 10.5ft 10s 22 27 mph 1007.8mb 52f 51f
3:00pm 10ft 11s 20 22 mph 1007.5mb 52f 51f
2:00pm 10ft 10s 18 22 mph 1007.5mb 52f 52f
1:00pm 11.5ft 10s 18 20 mph 1007.8mb 52f 52f
12:00pm 11ft 11s 18 22 mph 1008mb 52f 52f
11:00am 10ft 10s 13 18 mph 1008.6mb 52f 53f
10:00am 10ft 10s 13 18 mph 1008.6mb 52f 53f
9:00am 11ft 10s 11 13 mph 1008.5mb 52f 53f
8:00am 9ft 11s 9 11 mph 1008.5mb 52f 52f
7:00am 10ft 10s 7 9 mph 1008.7mb 52f 52f
6:00am 10ft 10s 2 4 mph 1008.4mb 52f 52f
5:00am 10ft 10s 4 7 mph 1008.8mb 52f 52f
4:00am 11ft 11s 11 13 mph 1008.5mb 52f 53f
3:00am 10ft 10s 16 18 mph 1008.6mb 52f 53f
2:00am 10ft 9s 16 20 mph 1008.3mb 52f 54f
1:00am 10.5ft 11s 16 18 mph 1007.9mb 52f 53f
12:00am 11ft 11s 13 16 mph 1007.7mb 52f 53f
Wed 11/22 11:00pm 11.5ft 10s 16 18 mph 1007.9mb 52f 54f
10:00pm 11.5ft 11s 16 20 mph 1007.9mb 52f 54f
9:00pm 12ft 10s 18 20 mph 1007.5mb 52f 54f
8:00pm 12.5ft 9s 20 22 mph 1007mb 52f 54f
7:00pm 13ft 10s 20 25 mph 1006.6mb 52f 54f
6:00pm 13ft 10s 20 27 mph 1006.5mb 52f 54f
5:00pm 13ft 9s 22 27 mph 1006.1mb 52f 54f
4:00pm 14ft 11s 25 29 mph 1006.1mb 52f 54f
3:00pm 13ft 12s 25 29 mph 1005.8mb 52f 54f
2:00pm 13.5ft 12s 29 36 mph 1005.6mb 52f 55f
1:00pm 13.5ft 11s 31 38 mph 1005.7mb 52f 55f
12:00pm 13ft 12s 29 36 mph 1006.6mb 52f 55f
11:00am 12ft 12s 29 38 mph 1007.1mb 52f 54f
10:00am 11.5ft 11s 27 34 mph 1007.2mb 52f 54f
9:00am 12ft 11s 22 29 mph 1008mb 52f 54f
8:00am 12.5ft 11s 20 27 mph 1008.5mb 52f 54f
7:00am 14ft 11s 20 25 mph 1008.7mb 52f 54f
6:00am 13ft 10s 22 27 mph 1008.7mb 52f 54f
5:00am 12.5ft 11s 22 27 mph 1008.5mb 52f 54f
4:00am 12ft 11s 25 29 mph 1008.1mb 52f 54f
3:00am 12ft 12s 22 25 mph 1008.4mb 52f 54f
2:00am 12ft 11s 20 25 mph 1008.4mb 52f 54f
Tue 11/21 6:00pm 10ft 9s 18 20 mph 1005.2mb 52f 54f
5:00pm 9ft 8s 16 18 mph 1004.7mb 52f 54f
4:00pm 9ft 8s 11 13 mph 1004.4mb 51f 54f
3:00pm 10ft 8s 11 16 mph 1003.2mb 51f 54f
2:00pm 11ft 8s 27 31 mph 1002.3mb 51f 50f
1:00pm 11.5ft 7s 38 47 mph 1001.6mb 51f 48f
12:00pm 11.5ft 7s 40 49 mph 1002.5mb 51f 47f
11:00am 11ft 7s 36 43 mph 1004.2mb 51f 47f
10:00am 10ft 9s 36 45 mph 1005.3mb 51f 47f
9:00am 9ft 9s 36 43 mph 1006.8mb 51f 47f
8:00am 9ft 8s 34 43 mph 1007.4mb 51f 47f
7:00am 7.5ft 10s 34 43 mph 1008.2mb 51f 46f
6:00am 8ft 10s 31 38 mph 1009.5mb 51f 47f
5:00am 8ft 10s 29 36 mph 1010.9mb 51f 48f
4:00am 7.5ft 9s 27 34 mph 1011.4mb 51f 49f
3:00am 7ft 10s 25 29 mph 1013.1mb 51f 49f
2:00am 8ft 10s 25 29 mph 1013.1mb 51f 49f
1:00am 8ft 10s 25 29 mph 1013.5mb 51f 48f
12:00am 7ft 10s 25 29 mph 1013.9mb 51f 48f
Mon 11/20 11:00pm 8ft 10s 22 29 mph 1014.7mb 52f 48f
10:00pm 8ft 10s 20 25 mph 1015.3mb 52f 48f
9:00pm 8ft 10s 18 20 mph 1015.7mb 52f 48f
8:00pm 9ft 10s 9 13 mph 1015.6mb 51f 50f
7:00pm 10ft 10s 9 11 mph 1015mb 51f 49f
6:00pm 9.5ft 11s 7 9 mph 1013.9mb 51f 49f
5:00pm 10ft 10s 4 7 mph 1013mb 51f 49f
4:00pm 10ft 11s 4 7 mph 1011.9mb 51f 49f
3:00pm 11ft 11s 7 11 mph 1010.6mb 51f 49f
2:00pm 11ft 11s 4 16 mph 1010.6mb 52f 49f
1:00pm 11ft 11s 7 9 mph 1009.7mb 52f 48f
12:00pm 12ft 12s 9 13 mph 1008.4mb 52f 49f
11:00am 11.5ft 11s 13 18 mph 1007.8mb 52f 49f
10:00am 11ft 12s 13 18 mph 1005.9mb 51f 48f
9:00am 12ft 10s 16 20 mph 1004.6mb 51f 48f
8:00am 11ft 10s 16 20 mph 1002.9mb 51f 48f
7:00am 12ft 12s 18 22 mph 1002.1mb 51f 48f